Greater Peoria Regional Airport
KPIA : now visible

Airfield :











YOU CAN JOIN US ON...

 
LOGIN :

Register | Disclaimer

   EN    FR    IT 

 









Legend :    VFR   Marginal VFR   IFR   Intensive IFR   Very Intensive IFR
Visi :
Ceiling :
>= 8 km
>= 3000ft
5 to 8 km
1000 to 3000 ft
1500m to 5 km
500 to 1000 ft
800 to 1500m
200 to 500 ft
< 800m
< 200 ft
Symbols :   Thunderstorms  Fog  Heavy snow  Heavy precipitations  Wind > 20 kt






- Airport Elevation : 660 ft
- IATA code : PIA


KPIA - Greater Peoria Regional

CURRENT METAR :
  • 280454Z 24003KT 10SM CLR 14/14 A2993 RMK AO2 SLP134 T01440139

EXPIRED METARs :
  • 280354Z 00000KT 10SM CLR 15/14 A2992 RMK AO2 RAB0256E10 SLP129 P0001 T01500139
  • 280254Z VRB03KT 10SM SCT060 OVC085 16/14 A2993 RMK AO2 LTG DSNT S AND SW RAB14E33 SLP133 P0004 60018 T01610144 53030
  • 280154Z VRB04KT 10SM FEW090 17/13 A2989 RMK AO2 RAE11 SLP120 P0001 T01670133
  • 280054Z 29010G21KT 10SM VCTS -RA SCT048 SCT060 OVC070 18/12 A2987 RMK AO2 PK WND 31030/0028 LTG DSNT N AND E RAB27 PRESFR SLP111 P0013 T01780122
  • 280104Z 29010KT 10SM -RA FEW060 BKN070 OVC090 18/12 A2987 RMK AO2 LTG DSNT E AND SE P0001 T01780122
  • 280025Z 32013G29KT 290V350 10SM VCTS SCT065 BKN080 23/11 A2986 RMK AO2 PK WND 31029/0025 LTG DSNT W AND NW PRESRR T02330106

TAF KPIA
Valid from the 28 at 02:00 until the 29 at 00:00 UTC


280207Z 2802/2824 VRB05KT P6SM VCTS SCT040CB
TEMPO 2802/2803 5SM SHRA BR BKN030
FM280300 23010KT P6SM FEW040
FM281400 30010G17KT P6SM BKN040
FM282100 30011G20KT P6SM VCTS SCT040CB
KZAU FIR / North America



MET'MAP, your aeronautical weather chart ! - Copyright ORBIFLY December 2007 - Disclaimer

ORBIFLY MET'MAP TEAM :

Programming & Development : Alexandra Zaïnal
Original concept : Baudouin d'Aumeries
Technical & hardware support : Manuel Goepfert
Assistance : Marc-Olivier Méhu




SOURCES & CREDITS :

   NOAA       Earth
Advisory